sensor_id;sensor_type;location;lat;lon;timestamp;pressure;altitude;pressure_sealevel;temperature;humidity
47738;BME280;33502;47.182;27.506;2023-07-30T00:00:36;99719.78;;;18.39;100.00
47738;BME280;33502;47.182;27.506;2023-07-30T00:03:01;99726.53;;;18.34;100.00
47738;BME280;33502;47.182;27.506;2023-07-30T00:05:27;99716.34;;;18.28;100.00
47738;BME280;33502;47.182;27.506;2023-07-30T00:07:53;99717.97;;;18.19;100.00
47738;BME280;33502;47.182;27.506;2023-07-30T00:10:20;99726.38;;;18.14;100.00
47738;BME280;33502;47.182;27.506;2023-07-30T00:12:46;99721.25;;;18.11;100.00
47738;BME280;33502;47.182;27.506;2023-07-30T00:15:11;99729.31;;;18.11;100.00
47738;BME280;33502;47.182;27.506;2023-07-30T00:17:38;99725.41;;;18.15;100.00
47738;BME280;33502;47.182;27.506;2023-07-30T00:20:04;99724.53;;;18.15;100.00
47738;BME280;33502;47.182;27.506;2023-07-30T00:22:30;99725.75;;;18.22;100.00
47738;BME280;33502;47.182;27.506;2023-07-30T00:24:56;99725.38;;;18.27;100.00
47738;BME280;33502;47.182;27.506;2023-07-30T00:27:21;99721.69;;;18.28;100.00
47738;BME280;33502;47.182;27.506;2023-07-30T00:29:47;99722.94;;;18.24;100.00
47738;BME280;33502;47.182;27.506;2023-07-30T00:32:12;99727.94;;;18.17;100.00
47738;BME280;33502;47.182;27.506;2023-07-30T00:34:41;99725.66;;;18.12;100.00
47738;BME280;33502;47.182;27.506;2023-07-30T00:37:06;99721.66;;;18.07;100.00
47738;BME280;33502;47.182;27.506;2023-07-30T00:39:32;99728.50;;;17.99;100.00
47738;BME280;33502;47.182;27.506;2023-07-30T00:41:57;99726.47;;;17.92;100.00
47738;BME280;33502;47.182;27.506;2023-07-30T00:44:23;99718.72;;;17.89;100.00
47738;BME280;33502;47.182;27.506;2023-07-30T00:46:49;99714.69;;;17.83;100.00
47738;BME280;33502;47.182;27.506;2023-07-30T00:49:14;99713.06;;;17.80;100.00
47738;BME280;33502;47.182;27.506;2023-07-30T00:51:40;99709.69;;;17.78;100.00
47738;BME280;33502;47.182;27.506;2023-07-30T00:54:06;99709.94;;;17.75;100.00
47738;BME280;33502;47.182;27.506;2023-07-30T00:56:32;99709.59;;;17.69;100.00
47738;BME280;33502;47.182;27.506;2023-07-30T00:58:57;99706.69;;;17.60;100.00
47738;BME280;33502;47.182;27.506;2023-07-30T01:01:23;99714.50;;;17.52;100.00
47738;BME280;33502;47.182;27.506;2023-07-30T01:03:49;99712.59;;;17.43;100.00
47738;BME280;33502;47.182;27.506;2023-07-30T01:06:15;99711.38;;;17.36;100.00
47738;BME280;33502;47.182;27.506;2023-07-30T01:08:41;99721.13;;;17.37;100.00
47738;BME280;33502;47.182;27.506;2023-07-30T01:11:07;99717.69;;;17.35;100.00
47738;BME280;33502;47.182;27.506;2023-07-30T01:13:33;99713.81;;;17.28;100.00
47738;BME280;33502;47.182;27.506;2023-07-30T01:15:59;99709.69;;;17.24;100.00
47738;BME280;33502;47.182;27.506;2023-07-30T01:18:25;99712.72;;;17.19;100.00
47738;BME280;33502;47.182;27.506;2023-07-30T01:20:56;99723.06;;;17.12;100.00
47738;BME280;33502;47.182;27.506;2023-07-30T01:23:22;99720.53;;;17.11;100.00
47738;BME280;33502;47.182;27.506;2023-07-30T01:25:48;99716.28;;;17.08;100.00
47738;BME280;33502;47.182;27.506;2023-07-30T01:28:17;99718.06;;;17.08;100.00
47738;BME280;33502;47.182;27.506;2023-07-30T01:30:43;99718.56;;;17.01;100.00
47738;BME280;33502;47.182;27.506;2023-07-30T01:33:10;99718.06;;;16.96;100.00
47738;BME280;33502;47.182;27.506;2023-07-30T01:35:36;99717.13;;;16.97;100.00
47738;BME280;33502;47.182;27.506;2023-07-30T01:38:03;99717.47;;;16.93;100.00
47738;BME280;33502;47.182;27.506;2023-07-30T01:40:31;99715.16;;;16.88;100.00
47738;BME280;33502;47.182;27.506;2023-07-30T01:42:57;99721.50;;;16.87;100.00
47738;BME280;33502;47.182;27.506;2023-07-30T01:45:22;99714.31;;;16.88;100.00
47738;BME280;33502;47.182;27.506;2023-07-30T01:47:48;99721.50;;;16.87;100.00
47738;BME280;33502;47.182;27.506;2023-07-30T01:50:13;99716.50;;;16.82;100.00
47738;BME280;33502;47.182;27.506;2023-07-30T01:52:39;99716.94;;;16.76;100.00
47738;BME280;33502;47.182;27.506;2023-07-30T01:55:05;99725.19;;;16.73;100.00
47738;BME280;33502;47.182;27.506;2023-07-30T01:57:31;99723.97;;;16.77;100.00
47738;BME280;33502;47.182;27.506;2023-07-30T01:59:57;99727.38;;;16.79;100.00
47738;BME280;33502;47.182;27.506;2023-07-30T02:02:23;99733.84;;;16.77;100.00
47738;BME280;33502;47.182;27.506;2023-07-30T02:04:48;99735.56;;;16.78;100.00
47738;BME280;33502;47.182;27.506;2023-07-30T02:07:14;99728.75;;;16.74;100.00
47738;BME280;33502;47.182;27.506;2023-07-30T02:09:40;99722.91;;;16.69;100.00
47738;BME280;33502;47.182;27.506;2023-07-30T02:12:06;99726.63;;;16.66;100.00
47738;BME280;33502;47.182;27.506;2023-07-30T02:14:31;99725.06;;;16.63;100.00
47738;BME280;33502;47.182;27.506;2023-07-30T02:17:00;99732.56;;;16.58;100.00
47738;BME280;33502;47.182;27.506;2023-07-30T02:19:25;99745.47;;;16.53;100.00
47738;BME280;33502;47.182;27.506;2023-07-30T02:21:51;99740.13;;;16.53;100.00
47738;BME280;33502;47.182;27.506;2023-07-30T02:24:16;99748.38;;;16.61;100.00
47738;BME280;33502;47.182;27.506;2023-07-30T02:26:42;99741.34;;;16.60;100.00
47738;BME280;33502;47.182;27.506;2023-07-30T02:29:08;99748.16;;;16.64;100.00
47738;BME280;33502;47.182;27.506;2023-07-30T02:31:33;99739.28;;;16.64;100.00
47738;BME280;33502;47.182;27.506;2023-07-30T02:33:59;99749.75;;;16.67;100.00
47738;BME280;33502;47.182;27.506;2023-07-30T02:36:24;99744.50;;;16.66;100.00
47738;BME280;33502;47.182;27.506;2023-07-30T02:38:50;99752.78;;;16.62;100.00
47738;BME280;33502;47.182;27.506;2023-07-30T02:41:16;99759.09;;;16.61;100.00
47738;BME280;33502;47.182;27.506;2023-07-30T02:43:41;99753.97;;;16.58;100.00
47738;BME280;33502;47.182;27.506;2023-07-30T02:46:07;99749.72;;;16.56;100.00
47738;BME280;33502;47.182;27.506;2023-07-30T02:48:33;99748.63;;;16.58;100.00
47738;BME280;33502;47.182;27.506;2023-07-30T02:50:58;99748.75;;;16.57;100.00
47738;BME280;33502;47.182;27.506;2023-07-30T02:53:24;99745.94;;;16.58;100.00
47738;BME280;33502;47.182;27.506;2023-07-30T02:55:49;99748.13;;;16.53;100.00
47738;BME280;33502;47.182;27.506;2023-07-30T02:58:15;99745.94;;;16.58;100.00
47738;BME280;33502;47.182;27.506;2023-07-30T03:00:41;99743.88;;;16.62;100.00
47738;BME280;33502;47.182;27.506;2023-07-30T03:03:06;99744.41;;;16.67;100.00
47738;BME280;33502;47.182;27.506;2023-07-30T03:05:32;99738.81;;;16.70;100.00
47738;BME280;33502;47.182;27.506;2023-07-30T03:07:58;99739.88;;;16.68;100.00
47738;BME280;33502;47.182;27.506;2023-07-30T03:10:23;99744.41;;;16.67;100.00
47738;BME280;33502;47.182;27.506;2023-07-30T03:12:49;99741.09;;;16.63;100.00
47738;BME280;33502;47.182;27.506;2023-07-30T03:15:15;99741.00;;;16.65;100.00
47738;BME280;33502;47.182;27.506;2023-07-30T03:17:40;99741.59;;;16.69;100.00
47738;BME280;33502;47.182;27.506;2023-07-30T03:20:06;99739.28;;;16.75;100.00
47738;BME280;33502;47.182;27.506;2023-07-30T03:22:32;99739.78;;;16.80;100.00
47738;BME280;33502;47.182;27.506;2023-07-30T03:24:58;99741.06;;;16.88;100.00
47738;BME280;33502;47.182;27.506;2023-07-30T03:27:23;99733.41;;;16.94;100.00
47738;BME280;33502;47.182;27.506;2023-07-30T03:29:49;99748.38;;;17.08;100.00
47738;BME280;33502;47.182;27.506;2023-07-30T03:32:14;99746.28;;;17.23;100.00
47738;BME280;33502;47.182;27.506;2023-07-30T03:34:40;99747.38;;;17.32;100.00
47738;BME280;33502;47.182;27.506;2023-07-30T03:37:06;99747.63;;;17.40;100.00
47738;BME280;33502;47.182;27.506;2023-07-30T03:39:31;99746.03;;;17.49;100.00
47738;BME280;33502;47.182;27.506;2023-07-30T03:41:57;99748.09;;;17.56;100.00
47738;BME280;33502;47.182;27.506;2023-07-30T03:44:23;99745.63;;;17.65;100.00
47738;BME280;33502;47.182;27.506;2023-07-30T03:46:48;99744.88;;;17.74;100.00
47738;BME280;33502;47.182;27.506;2023-07-30T03:49:14;99743.41;;;17.81;100.00
47738;BME280;33502;47.182;27.506;2023-07-30T03:51:39;99750.84;;;17.89;100.00
47738;BME280;33502;47.182;27.506;2023-07-30T03:54:05;99752.78;;;17.98;100.00
47738;BME280;33502;47.182;27.506;2023-07-30T03:56:31;99749.19;;;18.09;100.00
47738;BME280;33502;47.182;27.506;2023-07-30T03:58:56;99744.38;;;18.24;100.00
47738;BME280;33502;47.182;27.506;2023-07-30T04:01:23;99746.72;;;18.38;100.00
47738;BME280;33502;47.182;27.506;2023-07-30T04:03:48;99754.47;;;18.52;100.00
47738;BME280;33502;47.182;27.506;2023-07-30T04:06:14;99753.28;;;18.66;100.00
47738;BME280;33502;47.182;27.506;2023-07-30T04:08:40;99758.06;;;18.84;100.00
47738;BME280;33502;47.182;27.506;2023-07-30T04:11:05;99753.78;;;19.02;100.00
47738;BME280;33502;47.182;27.506;2023-07-30T04:13:32;99753.75;;;19.23;100.00
47738;BME280;33502;47.182;27.506;2023-07-30T04:15:57;99764.00;;;19.49;100.00
47738;BME280;33502;47.182;27.506;2023-07-30T04:18:23;99759.41;;;19.70;100.00
47738;BME280;33502;47.182;27.506;2023-07-30T04:20:49;99766.69;;;19.99;100.00
47738;BME280;33502;47.182;27.506;2023-07-30T04:23:14;99773.38;;;20.24;100.00
47738;BME280;33502;47.182;27.506;2023-07-30T04:25:40;99771.50;;;20.44;100.00
47738;BME280;33502;47.182;27.506;2023-07-30T04:28:05;99770.09;;;20.60;100.00
47738;BME280;33502;47.182;27.506;2023-07-30T04:30:32;99773.91;;;20.77;100.00
47738;BME280;33502;47.182;27.506;2023-07-30T04:32:58;99772.38;;;20.74;100.00
47738;BME280;33502;47.182;27.506;2023-07-30T04:35:24;99768.47;;;21.06;100.00
47738;BME280;33502;47.182;27.506;2023-07-30T04:37:49;99778.25;;;21.44;100.00
47738;BME280;33502;47.182;27.506;2023-07-30T04:40:16;99768.00;;;22.03;100.00
47738;BME280;33502;47.182;27.506;2023-07-30T04:42:41;99773.72;;;22.80;100.00
47738;BME280;33502;47.182;27.506;2023-07-30T04:45:08;99766.78;;;23.73;100.00
47738;BME280;33502;47.182;27.506;2023-07-30T04:47:37;99763.22;;;24.72;100.00
47738;BME280;33502;47.182;27.506;2023-07-30T04:50:03;99762.13;;;25.62;100.00
47738;BME280;33502;47.182;27.506;2023-07-30T04:52:29;99769.06;;;26.04;99.62
47738;BME280;33502;47.182;27.506;2023-07-30T04:54:55;99772.63;;;25.34;100.00
47738;BME280;33502;47.182;27.506;2023-07-30T04:57:21;99782.59;;;25.33;100.00
47738;BME280;33502;47.182;27.506;2023-07-30T04:59:46;99787.84;;;26.37;97.51
47738;BME280;33502;47.182;27.506;2023-07-30T05:02:12;99791.66;;;26.89;92.70
47738;BME280;33502;47.182;27.506;2023-07-30T05:04:38;99792.38;;;26.45;91.03
47738;BME280;33502;47.182;27.506;2023-07-30T05:07:03;99781.88;;;25.79;93.41
47738;BME280;33502;47.182;27.506;2023-07-30T05:09:29;99785.94;;;25.83;93.35
47738;BME280;33502;47.182;27.506;2023-07-30T05:11:55;99776.84;;;26.91;89.84
47738;BME280;33502;47.182;27.506;2023-07-30T05:14:20;99771.16;;;27.90;82.13
47738;BME280;33502;47.182;27.506;2023-07-30T05:16:46;99770.63;;;28.88;76.25
47738;BME280;33502;47.182;27.506;2023-07-30T05:19:11;99768.31;;;29.55;70.94
47738;BME280;33502;47.182;27.506;2023-07-30T05:21:37;99766.78;;;29.87;68.70
47738;BME280;33502;47.182;27.506;2023-07-30T05:24:03;99769.19;;;30.23;66.75
47738;BME280;33502;47.182;27.506;2023-07-30T05:26:28;99764.00;;;30.95;61.91
47738;BME280;33502;47.182;27.506;2023-07-30T05:28:54;99769.66;;;31.20;59.78
47738;BME280;33502;47.182;27.506;2023-07-30T05:31:19;99764.34;;;31.32;58.82
47738;BME280;33502;47.182;27.506;2023-07-30T05:33:45;99767.25;;;31.57;58.30
47738;BME280;33502;47.182;27.506;2023-07-30T05:36:11;99767.88;;;32.05;57.21
47738;BME280;33502;47.182;27.506;2023-07-30T05:38:37;99769.19;;;32.59;52.71
47738;BME280;33502;47.182;27.506;2023-07-30T05:41:03;99765.19;;;33.05;53.74
47738;BME280;33502;47.182;27.506;2023-07-30T05:43:28;99770.66;;;33.12;50.75
47738;BME280;33502;47.182;27.506;2023-07-30T05:45:54;99758.31;;;33.21;50.01
47738;BME280;33502;47.182;27.506;2023-07-30T05:48:19;99753.03;;;33.57;49.10
47738;BME280;33502;47.182;27.506;2023-07-30T05:50:45;99751.88;;;33.46;47.59
47738;BME280;33502;47.182;27.506;2023-07-30T05:53:11;99757.56;;;33.69;46.98
47738;BME280;33502;47.182;27.506;2023-07-30T05:55:36;99758.59;;;33.87;45.70
47738;BME280;33502;47.182;27.506;2023-07-30T05:58:02;99752.38;;;33.43;47.56
47738;BME280;33502;47.182;27.506;2023-07-30T06:00:27;99754.03;;;33.81;46.90
47738;BME280;33502;47.182;27.506;2023-07-30T06:02:53;99752.78;;;34.37;45.85
47738;BME280;33502;47.182;27.506;2023-07-30T06:05:19;99748.63;;;34.46;45.64
47738;BME280;33502;47.182;27.506;2023-07-30T06:07:44;99742.47;;;34.86;44.79
47738;BME280;33502;47.182;27.506;2023-07-30T06:10:10;99744.97;;;35.00;43.66
47738;BME280;33502;47.182;27.506;2023-07-30T06:12:36;99747.84;;;34.81;44.99
47738;BME280;33502;47.182;27.506;2023-07-30T06:15:01;99748.19;;;35.32;44.90
47738;BME280;33502;47.182;27.506;2023-07-30T06:17:27;99761.00;;;35.26;44.91
47738;BME280;33502;47.182;27.506;2023-07-30T06:19:53;99754.75;;;35.43;43.84
47738;BME280;33502;47.182;27.506;2023-07-30T06:22:18;99759.81;;;35.22;43.96
47738;BME280;33502;47.182;27.506;2023-07-30T06:24:44;99759.81;;;34.99;44.75
47738;BME280;33502;47.182;27.506;2023-07-30T06:27:10;99757.63;;;35.36;43.40
47738;BME280;33502;47.182;27.506;2023-07-30T06:29:35;99761.84;;;34.92;43.78
47738;BME280;33502;47.182;27.506;2023-07-30T06:32:01;99754.91;;;35.77;43.14
47738;BME280;33502;47.182;27.506;2023-07-30T06:34:27;99754.06;;;36.51;42.04
47738;BME280;33502;47.182;27.506;2023-07-30T06:36:52;99748.41;;;36.74;41.60
47738;BME280;33502;47.182;27.506;2023-07-30T06:39:18;99751.88;;;37.03;41.48
47738;BME280;33502;47.182;27.506;2023-07-30T06:41:43;99746.72;;;37.29;40.26
47738;BME280;33502;47.182;27.506;2023-07-30T06:44:09;99755.94;;;37.57;39.48
47738;BME280;33502;47.182;27.506;2023-07-30T06:46:35;99756.69;;;37.52;39.53
47738;BME280;33502;47.182;27.506;2023-07-30T06:49:01;99754.66;;;36.87;40.14
47738;BME280;33502;47.182;27.506;2023-07-30T06:51:26;99762.03;;;36.81;41.18
47738;BME280;33502;47.182;27.506;2023-07-30T06:53:52;99761.34;;;36.57;41.54
47738;BME280;33502;47.182;27.506;2023-07-30T06:56:17;99755.75;;;36.52;40.40
47738;BME280;33502;47.182;27.506;2023-07-30T06:58:43;99759.28;;;35.90;41.95
47738;BME280;33502;47.182;27.506;2023-07-30T07:01:08;99760.50;;;36.56;41.28
47738;BME280;33502;47.182;27.506;2023-07-30T07:03:34;99760.91;;;36.99;40.09
47738;BME280;33502;47.182;27.506;2023-07-30T07:06:00;99749.63;;;37.17;40.68
47738;BME280;33502;47.182;27.506;2023-07-30T07:08:25;99750.78;;;37.04;40.20
47738;BME280;33502;47.182;27.506;2023-07-30T07:10:52;99751.41;;;37.51;39.26
47738;BME280;33502;47.182;27.506;2023-07-30T07:13:18;99757.13;;;37.05;39.64
47738;BME280;33502;47.182;27.506;2023-07-30T07:15:44;99748.72;;;35.70;41.04
47738;BME280;33502;47.182;27.506;2023-07-30T07:18:09;99743.97;;;36.11;40.91
47738;BME280;33502;47.182;27.506;2023-07-30T07:20:35;99746.03;;;37.17;38.96
47738;BME280;33502;47.182;27.506;2023-07-30T07:23:01;99745.22;;;37.60;36.99
47738;BME280;33502;47.182;27.506;2023-07-30T07:25:26;99736.72;;;37.67;35.53
47738;BME280;33502;47.182;27.506;2023-07-30T07:27:52;99737.03;;;37.49;35.59
47738;BME280;33502;47.182;27.506;2023-07-30T07:30:18;99740.72;;;37.76;36.56
47738;BME280;33502;47.182;27.506;2023-07-30T07:32:43;99738.59;;;38.11;36.67
47738;BME280;33502;47.182;27.506;2023-07-30T07:35:09;99735.13;;;37.71;38.29
47738;BME280;33502;47.182;27.506;2023-07-30T07:37:34;99730.13;;;38.23;37.47
47738;BME280;33502;47.182;27.506;2023-07-30T07:40:00;99736.00;;;38.64;35.83
47738;BME280;33502;47.182;27.506;2023-07-30T07:42:26;99728.50;;;38.96;34.44
47738;BME280;33502;47.182;27.506;2023-07-30T07:44:52;99727.16;;;38.99;33.56
47738;BME280;33502;47.182;27.506;2023-07-30T07:47:17;99726.66;;;39.12;34.37
47738;BME280;33502;47.182;27.506;2023-07-30T07:49:43;99720.13;;;38.16;34.87
47738;BME280;33502;47.182;27.506;2023-07-30T07:52:09;99722.72;;;37.13;37.23
47738;BME280;33502;47.182;27.506;2023-07-30T07:54:35;99725.91;;;36.99;37.53
47738;BME280;33502;47.182;27.506;2023-07-30T07:57:00;99725.75;;;37.28;36.67
47738;BME280;33502;47.182;27.506;2023-07-30T07:59:26;99723.19;;;37.66;36.70
47738;BME280;33502;47.182;27.506;2023-07-30T08:01:53;99718.28;;;37.51;36.17
47738;BME280;33502;47.182;27.506;2023-07-30T08:04:19;99715.75;;;37.93;35.22
47738;BME280;33502;47.182;27.506;2023-07-30T08:06:46;99705.88;;;37.75;35.17
47738;BME280;33502;47.182;27.506;2023-07-30T08:09:12;99708.22;;;37.89;35.67
47738;BME280;33502;47.182;27.506;2023-07-30T08:11:38;99705.06;;;37.75;36.67
47738;BME280;33502;47.182;27.506;2023-07-30T08:14:03;99698.44;;;38.03;36.00
47738;BME280;33502;47.182;27.506;2023-07-30T08:16:29;99698.16;;;38.37;34.98
47738;BME280;33502;47.182;27.506;2023-07-30T08:18:55;99697.72;;;38.88;34.76
47738;BME280;33502;47.182;27.506;2023-07-30T08:21:21;99699.63;;;39.30;32.65
47738;BME280;33502;47.182;27.506;2023-07-30T08:23:46;99691.47;;;39.76;32.97
47738;BME280;33502;47.182;27.506;2023-07-30T08:26:12;99697.88;;;39.87;32.21
47738;BME280;33502;47.182;27.506;2023-07-30T08:28:38;99697.63;;;39.99;33.19
47738;BME280;33502;47.182;27.506;2023-07-30T08:31:05;99690.19;;;40.40;31.94
47738;BME280;33502;47.182;27.506;2023-07-30T08:33:31;99694.28;;;39.91;31.50
47738;BME280;33502;47.182;27.506;2023-07-30T08:35:58;99686.47;;;39.78;31.07
47738;BME280;33502;47.182;27.506;2023-07-30T08:38:24;99677.34;;;39.78;31.46
47738;BME280;33502;47.182;27.506;2023-07-30T08:40:50;99682.63;;;38.63;33.25
47738;BME280;33502;47.182;27.506;2023-07-30T08:43:15;99671.38;;;37.29;35.36
47738;BME280;33502;47.182;27.506;2023-07-30T08:45:41;99678.38;;;36.75;36.30
47738;BME280;33502;47.182;27.506;2023-07-30T08:48:07;99690.34;;;36.01;36.29
47738;BME280;33502;47.182;27.506;2023-07-30T08:50:32;99683.47;;;35.29;38.08
47738;BME280;33502;47.182;27.506;2023-07-30T08:52:59;99695.19;;;35.13;37.65
47738;BME280;33502;47.182;27.506;2023-07-30T08:55:26;99696.19;;;35.07;38.52
47738;BME280;33502;47.182;27.506;2023-07-30T08:57:55;99695.56;;;35.57;38.71
47738;BME280;33502;47.182;27.506;2023-07-30T09:00:20;99680.50;;;36.05;37.41
47738;BME280;33502;47.182;27.506;2023-07-30T09:02:51;99682.72;;;36.37;36.95
47738;BME280;33502;47.182;27.506;2023-07-30T09:05:17;99673.19;;;36.28;37.20
47738;BME280;33502;47.182;27.506;2023-07-30T09:07:42;99679.34;;;36.01;37.56
47738;BME280;33502;47.182;27.506;2023-07-30T09:10:08;99682.88;;;36.48;37.55
47738;BME280;33502;47.182;27.506;2023-07-30T09:12:35;99680.88;;;36.60;36.27
47738;BME280;33502;47.182;27.506;2023-07-30T09:15:05;99678.28;;;36.36;36.13
47738;BME280;33502;47.182;27.506;2023-07-30T09:17:31;99671.28;;;36.45;36.92
47738;BME280;33502;47.182;27.506;2023-07-30T09:19:58;99671.69;;;36.71;36.85
47738;BME280;33502;47.182;27.506;2023-07-30T09:22:27;99669.25;;;36.58;35.96
47738;BME280;33502;47.182;27.506;2023-07-30T09:24:57;99670.66;;;36.77;35.56
47738;BME280;33502;47.182;27.506;2023-07-30T09:27:24;99673.59;;;37.10;34.80
47738;BME280;33502;47.182;27.506;2023-07-30T09:29:53;99669.81;;;36.94;35.31
47738;BME280;33502;47.182;27.506;2023-07-30T09:32:19;99671.59;;;37.05;35.29
47738;BME280;33502;47.182;27.506;2023-07-30T09:34:45;99675.28;;;37.33;34.03
47738;BME280;33502;47.182;27.506;2023-07-30T09:37:11;99664.31;;;37.38;33.82
47738;BME280;33502;47.182;27.506;2023-07-30T09:39:37;99663.78;;;37.41;35.36
47738;BME280;33502;47.182;27.506;2023-07-30T09:42:03;99661.19;;;37.56;35.35
47738;BME280;33502;47.182;27.506;2023-07-30T09:44:29;99657.72;;;37.17;34.86
47738;BME280;33502;47.182;27.506;2023-07-30T09:46:56;99654.00;;;36.67;35.61
47738;BME280;33502;47.182;27.506;2023-07-30T09:49:22;99662.94;;;36.96;35.57
47738;BME280;33502;47.182;27.506;2023-07-30T09:51:48;99651.44;;;36.82;34.56
47738;BME280;33502;47.182;27.506;2023-07-30T09:54:14;99649.47;;;37.44;35.68
47738;BME280;33502;47.182;27.506;2023-07-30T09:56:41;99635.19;;;37.79;33.66
47738;BME280;33502;47.182;27.506;2023-07-30T09:59:07;99635.31;;;37.90;37.77
47738;BME280;33502;47.182;27.506;2023-07-30T10:01:35;99630.25;;;38.09;33.91
47738;BME280;33502;47.182;27.506;2023-07-30T10:04:03;99622.88;;;38.25;32.21
47738;BME280;33502;47.182;27.506;2023-07-30T10:06:29;99622.47;;;38.48;32.58
47738;BME280;33502;47.182;27.506;2023-07-30T10:08:56;99620.03;;;38.52;33.16
47738;BME280;33502;47.182;27.506;2023-07-30T10:11:23;99615.00;;;38.91;35.40
47738;BME280;33502;47.182;27.506;2023-07-30T10:13:50;99618.47;;;39.24;33.29
47738;BME280;33502;47.182;27.506;2023-07-30T10:16:16;99613.72;;;39.04;32.51
47738;BME280;33502;47.182;27.506;2023-07-30T10:18:42;99609.28;;;39.08;33.32
47738;BME280;33502;47.182;27.506;2023-07-30T10:21:08;99616.31;;;39.37;31.43
47738;BME280;33502;47.182;27.506;2023-07-30T10:23:35;99615.34;;;39.05;32.50
47738;BME280;33502;47.182;27.506;2023-07-30T10:26:10;99603.66;;;38.98;32.10
47738;BME280;33502;47.182;27.506;2023-07-30T10:28:36;99603.94;;;38.44;32.96
47738;BME280;33502;47.182;27.506;2023-07-30T10:31:05;99613.47;;;38.63;32.37
47738;BME280;33502;47.182;27.506;2023-07-30T10:36:11;99612.50;;;38.42;32.14
47738;BME280;33502;47.182;27.506;2023-07-30T10:38:36;99587.44;;;38.54;32.18
47738;BME280;33502;47.182;27.506;2023-07-30T10:43:32;99598.59;;;38.74;30.70
47738;BME280;33502;47.182;27.506;2023-07-30T10:45:59;99590.69;;;38.46;30.56
47738;BME280;33502;47.182;27.506;2023-07-30T10:48:31;99592.16;;;38.58;31.79
47738;BME280;33502;47.182;27.506;2023-07-30T10:50:58;99594.22;;;38.84;31.09
47738;BME280;33502;47.182;27.506;2023-07-30T10:53:24;99586.75;;;38.36;32.88
47738;BME280;33502;47.182;27.506;2023-07-30T10:55:49;99594.06;;;38.58;31.83
47738;BME280;33502;47.182;27.506;2023-07-30T10:58:15;99588.47;;;38.48;31.81
47738;BME280;33502;47.182;27.506;2023-07-30T11:00:41;99586.44;;;38.81;31.32
47738;BME280;33502;47.182;27.506;2023-07-30T11:03:07;99590.22;;;38.59;30.74
47738;BME280;33502;47.182;27.506;2023-07-30T11:05:33;99585.47;;;37.79;31.37
47738;BME280;33502;47.182;27.506;2023-07-30T11:07:58;99579.16;;;38.16;32.21
47738;BME280;33502;47.182;27.506;2023-07-30T11:10:24;99577.38;;;38.37;31.65
47738;BME280;33502;47.182;27.506;2023-07-30T11:12:50;99578.50;;;38.42;31.99
47738;BME280;33502;47.182;27.506;2023-07-30T11:15:16;99576.72;;;38.68;31.70
47738;BME280;33502;47.182;27.506;2023-07-30T11:17:42;99569.53;;;38.67;32.20
47738;BME280;33502;47.182;27.506;2023-07-30T11:20:21;99571.72;;;38.65;31.15
47738;BME280;33502;47.182;27.506;2023-07-30T11:22:46;99573.66;;;38.69;31.19
47738;BME280;33502;47.182;27.506;2023-07-30T11:25:18;99565.69;;;38.30;30.72
47738;BME280;33502;47.182;27.506;2023-07-30T11:27:44;99553.81;;;38.30;31.09
47738;BME280;33502;47.182;27.506;2023-07-30T11:30:10;99551.03;;;37.92;31.94
47738;BME280;33502;47.182;27.506;2023-07-30T11:32:35;99541.69;;;37.34;32.43
47738;BME280;33502;47.182;27.506;2023-07-30T11:35:01;99545.75;;;37.04;32.58
47738;BME280;33502;47.182;27.506;2023-07-30T11:37:27;99538.94;;;37.34;33.33
47738;BME280;33502;47.182;27.506;2023-07-30T11:39:52;99546.16;;;38.05;32.98
47738;BME280;33502;47.182;27.506;2023-07-30T11:42:18;99531.56;;;38.09;31.75
47738;BME280;33502;47.182;27.506;2023-07-30T11:44:44;99534.34;;;37.77;32.36
47738;BME280;33502;47.182;27.506;2023-07-30T11:47:09;99524.00;;;37.62;32.20
47738;BME280;33502;47.182;27.506;2023-07-30T11:49:35;99525.44;;;37.65;33.34
47738;BME280;33502;47.182;27.506;2023-07-30T11:52:04;99523.97;;;37.89;32.65
47738;BME280;33502;47.182;27.506;2023-07-30T11:54:30;99525.50;;;37.75;32.88
47738;BME280;33502;47.182;27.506;2023-07-30T11:56:56;99526.34;;;38.13;32.58
47738;BME280;33502;47.182;27.506;2023-07-30T11:59:22;99519.91;;;38.50;32.49
47738;BME280;33502;47.182;27.506;2023-07-30T12:01:48;99527.38;;;39.12;31.48
47738;BME280;33502;47.182;27.506;2023-07-30T12:04:14;99523.53;;;39.65;30.64
47738;BME280;33502;47.182;27.506;2023-07-30T12:11:46;99524.66;;;39.74;29.90
47738;BME280;33502;47.182;27.506;2023-07-30T12:14:12;99512.72;;;40.09;31.71
47738;BME280;33502;47.182;27.506;2023-07-30T12:16:38;99519.94;;;39.95;30.73
47738;BME280;33502;47.182;27.506;2023-07-30T12:19:04;99523.00;;;39.58;30.67
47738;BME280;33502;47.182;27.506;2023-07-30T12:21:29;99515.09;;;38.88;33.01
47738;BME280;33502;47.182;27.506;2023-07-30T12:23:55;99511.16;;;38.10;32.25
47738;BME280;33502;47.182;27.506;2023-07-30T12:26:20;99510.28;;;37.45;33.80
47738;BME280;33502;47.182;27.506;2023-07-30T12:28:46;99502.19;;;37.06;33.65
47738;BME280;33502;47.182;27.506;2023-07-30T12:31:11;99494.50;;;36.42;34.71
47738;BME280;33502;47.182;27.506;2023-07-30T12:33:37;99499.19;;;36.02;35.15
47738;BME280;33502;47.182;27.506;2023-07-30T12:36:03;99497.38;;;35.91;36.01
47738;BME280;33502;47.182;27.506;2023-07-30T12:38:28;99490.53;;;35.77;36.78
47738;BME280;33502;47.182;27.506;2023-07-30T12:40:54;99496.28;;;36.70;34.86
47738;BME280;33502;47.182;27.506;2023-07-30T12:43:21;99491.09;;;37.01;33.97
47738;BME280;33502;47.182;27.506;2023-07-30T12:45:46;99485.19;;;36.65;35.61
47738;BME280;33502;47.182;27.506;2023-07-30T12:48:12;99491.56;;;36.49;35.18